sensor_id;sensor_type;location;lat;lon;timestamp;temperature;humidity
68719;DHT22;55696;52.138;5.444;2023-05-20T00:00:46;16.10;54.00
68719;DHT22;55696;52.138;5.444;2023-05-20T00:03:16;16.10;54.60
68719;DHT22;55696;52.138;5.444;2023-05-20T00:05:43;16.00;53.50
68719;DHT22;55696;52.138;5.444;2023-05-20T00:08:11;16.20;53.60
68719;DHT22;55696;52.138;5.444;2023-05-20T00:10:38;16.00;53.80
68719;DHT22;55696;52.138;5.444;2023-05-20T00:13:05;16.00;55.20
68719;DHT22;55696;52.138;5.444;2023-05-20T00:15:34;16.00;53.60
68719;DHT22;55696;52.138;5.444;2023-05-20T00:18:04;15.90;54.50
68719;DHT22;55696;52.138;5.444;2023-05-20T00:20:31;15.90;53.80
68719;DHT22;55696;52.138;5.444;2023-05-20T00:22:58;15.90;54.00
68719;DHT22;55696;52.138;5.444;2023-05-20T00:25:25;15.90;53.90
68719;DHT22;55696;52.138;5.444;2023-05-20T00:27:52;16.00;53.90
68719;DHT22;55696;52.138;5.444;2023-05-20T00:30:19;15.80;53.80
68719;DHT22;55696;52.138;5.444;2023-05-20T00:32:46;16.80;54.70
68719;DHT22;55696;52.138;5.444;2023-05-20T00:35:13;16.70;54.80
68719;DHT22;55696;52.138;5.444;2023-05-20T00:37:40;15.70;54.50
68719;DHT22;55696;52.138;5.444;2023-05-20T00:40:07;15.70;54.70
68719;DHT22;55696;52.138;5.444;2023-05-20T00:42:34;15.80;54.90
68719;DHT22;55696;52.138;5.444;2023-05-20T00:45:01;15.60;54.70
68719;DHT22;55696;52.138;5.444;2023-05-20T00:47:31;15.80;55.00
68719;DHT22;55696;52.138;5.444;2023-05-20T00:49:59;15.70;56.20
68719;DHT22;55696;52.138;5.444;2023-05-20T00:52:28;15.60;55.50
68719;DHT22;55696;52.138;5.444;2023-05-20T00:54:57;15.80;55.50
68719;DHT22;55696;52.138;5.444;2023-05-20T00:57:25;15.80;55.30
68719;DHT22;55696;52.138;5.444;2023-05-20T00:59:52;15.70;55.20
68719;DHT22;55696;52.138;5.444;2023-05-20T01:02:19;15.90;55.50
68719;DHT22;55696;52.138;5.444;2023-05-20T01:04:46;15.90;55.10
68719;DHT22;55696;52.138;5.444;2023-05-20T01:07:15;15.80;55.00
68719;DHT22;55696;52.138;5.444;2023-05-20T01:09:43;15.70;56.20
68719;DHT22;55696;52.138;5.444;2023-05-20T01:12:15;15.80;55.70
68719;DHT22;55696;52.138;5.444;2023-05-20T01:14:50;15.70;54.90
68719;DHT22;55696;52.138;5.444;2023-05-20T01:17:19;15.70;57.30
68719;DHT22;55696;52.138;5.444;2023-05-20T01:19:46;15.70;56.10
68719;DHT22;55696;52.138;5.444;2023-05-20T01:22:14;15.70;55.70
68719;DHT22;55696;52.138;5.444;2023-05-20T01:24:43;15.70;55.30
68719;DHT22;55696;52.138;5.444;2023-05-20T01:27:11;15.70;57.00
68719;DHT22;55696;52.138;5.444;2023-05-20T01:29:41;15.60;56.00
68719;DHT22;55696;52.138;5.444;2023-05-20T01:32:19;15.60;56.10
68719;DHT22;55696;52.138;5.444;2023-05-20T01:34:49;15.60;57.80
68719;DHT22;55696;52.138;5.444;2023-05-20T01:37:18;15.60;58.20
68719;DHT22;55696;52.138;5.444;2023-05-20T01:39:48;15.50;56.80
68719;DHT22;55696;52.138;5.444;2023-05-20T01:42:16;15.50;56.90
68719;DHT22;55696;52.138;5.444;2023-05-20T01:44:45;15.40;56.80
68719;DHT22;55696;52.138;5.444;2023-05-20T01:47:12;15.50;56.20
68719;DHT22;55696;52.138;5.444;2023-05-20T01:49:40;15.30;56.20
68719;DHT22;55696;52.138;5.444;2023-05-20T01:52:07;15.40;56.20
68719;DHT22;55696;52.138;5.444;2023-05-20T01:54:34;15.30;56.50
68719;DHT22;55696;52.138;5.444;2023-05-20T01:57:01;15.30;56.70
68719;DHT22;55696;52.138;5.444;2023-05-20T01:59:28;15.30;56.80
68719;DHT22;55696;52.138;5.444;2023-05-20T02:01:55;15.40;56.90
68719;DHT22;55696;52.138;5.444;2023-05-20T02:04:22;15.70;57.20
68719;DHT22;55696;52.138;5.444;2023-05-20T02:06:49;15.60;57.40
68719;DHT22;55696;52.138;5.444;2023-05-20T02:09:17;15.10;57.10
68719;DHT22;55696;52.138;5.444;2023-05-20T02:11:44;15.10;58.50
68719;DHT22;55696;52.138;5.444;2023-05-20T02:14:11;15.00;57.30
68719;DHT22;55696;52.138;5.444;2023-05-20T02:16:38;15.00;57.60
68719;DHT22;55696;52.138;5.444;2023-05-20T02:19:05;15.00;57.50
68719;DHT22;55696;52.138;5.444;2023-05-20T02:21:41;15.80;58.20
68719;DHT22;55696;52.138;5.444;2023-05-20T02:24:09;15.80;58.40
68719;DHT22;55696;52.138;5.444;2023-05-20T02:26:36;14.90;58.00
68719;DHT22;55696;52.138;5.444;2023-05-20T02:29:03;14.90;57.80
68719;DHT22;55696;52.138;5.444;2023-05-20T02:31:30;14.90;58.10
68719;DHT22;55696;52.138;5.444;2023-05-20T02:33:57;14.80;58.00
68719;DHT22;55696;52.138;5.444;2023-05-20T02:36:24;14.80;58.30
68719;DHT22;55696;52.138;5.444;2023-05-20T02:38:51;14.70;58.40
68719;DHT22;55696;52.138;5.444;2023-05-20T02:41:20;15.00;58.60
68719;DHT22;55696;52.138;5.444;2023-05-20T02:43:47;14.80;58.60
68719;DHT22;55696;52.138;5.444;2023-05-20T02:46:13;14.70;58.70
68719;DHT22;55696;52.138;5.444;2023-05-20T02:48:41;14.60;58.70
68719;DHT22;55696;52.138;5.444;2023-05-20T02:51:08;15.10;58.90
68719;DHT22;55696;52.138;5.444;2023-05-20T02:53:35;14.60;58.70
68719;DHT22;55696;52.138;5.444;2023-05-20T02:56:03;14.80;58.80
68719;DHT22;55696;52.138;5.444;2023-05-20T02:58:30;14.70;59.50
68719;DHT22;55696;52.138;5.444;2023-05-20T03:00:57;14.70;59.00
68719;DHT22;55696;52.138;5.444;2023-05-20T03:03:25;14.70;59.00
68719;DHT22;55696;52.138;5.444;2023-05-20T03:05:53;14.60;59.60
68719;DHT22;55696;52.138;5.444;2023-05-20T03:08:21;14.80;59.70
68719;DHT22;55696;52.138;5.444;2023-05-20T03:10:48;15.50;60.60
68719;DHT22;55696;52.138;5.444;2023-05-20T03:13:15;14.80;59.70
68719;DHT22;55696;52.138;5.444;2023-05-20T03:15:42;14.50;59.30
68719;DHT22;55696;52.138;5.444;2023-05-20T03:18:11;14.60;59.70
68719;DHT22;55696;52.138;5.444;2023-05-20T03:20:39;14.50;59.70
68719;DHT22;55696;52.138;5.444;2023-05-20T03:23:07;14.40;59.80
68719;DHT22;55696;52.138;5.444;2023-05-20T03:25:36;14.40;61.20
68719;DHT22;55696;52.138;5.444;2023-05-20T03:28:04;14.50;60.60
68719;DHT22;55696;52.138;5.444;2023-05-20T03:30:34;14.50;60.30
68719;DHT22;55696;52.138;5.444;2023-05-20T03:33:01;14.40;60.10
68719;DHT22;55696;52.138;5.444;2023-05-20T03:35:28;14.40;60.20
68719;DHT22;55696;52.138;5.444;2023-05-20T03:37:55;14.50;60.20
68719;DHT22;55696;52.138;5.444;2023-05-20T03:40:23;14.40;60.10
68719;DHT22;55696;52.138;5.444;2023-05-20T03:42:50;14.50;60.40
68719;DHT22;55696;52.138;5.444;2023-05-20T03:45:19;14.40;60.30
68719;DHT22;55696;52.138;5.444;2023-05-20T03:47:55;14.50;60.60
68719;DHT22;55696;52.138;5.444;2023-05-20T03:50:22;14.30;60.40
68719;DHT22;55696;52.138;5.444;2023-05-20T03:52:49;14.40;60.50
68719;DHT22;55696;52.138;5.444;2023-05-20T03:55:19;14.50;60.70
68719;DHT22;55696;52.138;5.444;2023-05-20T03:57:46;14.40;60.60
68719;DHT22;55696;52.138;5.444;2023-05-20T04:00:14;14.40;60.40
68719;DHT22;55696;52.138;5.444;2023-05-20T04:02:42;14.50;60.50
68719;DHT22;55696;52.138;5.444;2023-05-20T04:05:12;14.50;60.40
68719;DHT22;55696;52.138;5.444;2023-05-20T04:07:40;14.50;60.50
68719;DHT22;55696;52.138;5.444;2023-05-20T04:10:08;14.50;60.60
68719;DHT22;55696;52.138;5.444;2023-05-20T04:12:35;14.50;61.00
68719;DHT22;55696;52.138;5.444;2023-05-20T04:15:04;14.50;60.70
68719;DHT22;55696;52.138;5.444;2023-05-20T04:17:47;14.60;61.00
68719;DHT22;55696;52.138;5.444;2023-05-20T04:20:14;14.70;60.70
68719;DHT22;55696;52.138;5.444;2023-05-20T04:22:41;14.90;60.80
68719;DHT22;55696;52.138;5.444;2023-05-20T04:25:08;15.90;60.90
68719;DHT22;55696;52.138;5.444;2023-05-20T04:27:35;15.00;60.50
68719;DHT22;55696;52.138;5.444;2023-05-20T04:30:04;15.10;60.00
68719;DHT22;55696;52.138;5.444;2023-05-20T04:32:35;15.10;60.50
68719;DHT22;55696;52.138;5.444;2023-05-20T04:35:03;15.20;59.80
68719;DHT22;55696;52.138;5.444;2023-05-20T04:37:34;15.20;59.90
68719;DHT22;55696;52.138;5.444;2023-05-20T04:40:04;15.20;59.80
68719;DHT22;55696;52.138;5.444;2023-05-20T04:42:34;15.10;60.70
68719;DHT22;55696;52.138;5.444;2023-05-20T04:45:01;15.00;60.00
68719;DHT22;55696;52.138;5.444;2023-05-20T04:47:32;15.20;60.20
68719;DHT22;55696;52.138;5.444;2023-05-20T04:50:09;15.10;60.00
68719;DHT22;55696;52.138;5.444;2023-05-20T04:52:41;15.20;61.80
68719;DHT22;55696;52.138;5.444;2023-05-20T04:55:10;15.80;60.30
68719;DHT22;55696;52.138;5.444;2023-05-20T04:57:38;15.20;60.20
68719;DHT22;55696;52.138;5.444;2023-05-20T05:00:09;15.30;60.90
68719;DHT22;55696;52.138;5.444;2023-05-20T05:02:36;15.30;60.80
68719;DHT22;55696;52.138;5.444;2023-05-20T05:05:04;15.20;60.50
68719;DHT22;55696;52.138;5.444;2023-05-20T05:07:31;15.20;60.40
68719;DHT22;55696;52.138;5.444;2023-05-20T05:09:58;15.30;60.20
68719;DHT22;55696;52.138;5.444;2023-05-20T05:12:27;15.20;60.00
68719;DHT22;55696;52.138;5.444;2023-05-20T05:14:54;15.30;59.90
68719;DHT22;55696;52.138;5.444;2023-05-20T05:17:21;15.40;60.00
68719;DHT22;55696;52.138;5.444;2023-05-20T05:19:48;15.40;59.80
68719;DHT22;55696;52.138;5.444;2023-05-20T05:22:16;15.40;59.90
68719;DHT22;55696;52.138;5.444;2023-05-20T05:24:42;15.50;60.00
68719;DHT22;55696;52.138;5.444;2023-05-20T05:27:09;15.50;59.80
68719;DHT22;55696;52.138;5.444;2023-05-20T05:29:36;15.50;59.70
68719;DHT22;55696;52.138;5.444;2023-05-20T05:32:03;15.50;59.40
68719;DHT22;55696;52.138;5.444;2023-05-20T05:34:30;15.70;59.50
68719;DHT22;55696;52.138;5.444;2023-05-20T05:36:58;15.80;59.30
68719;DHT22;55696;52.138;5.444;2023-05-20T05:39:25;15.70;59.30
68719;DHT22;55696;52.138;5.444;2023-05-20T05:41:52;15.90;59.10
68719;DHT22;55696;52.138;5.444;2023-05-20T05:44:19;16.00;58.90
68719;DHT22;55696;52.138;5.444;2023-05-20T05:46:47;16.10;58.80
68719;DHT22;55696;52.138;5.444;2023-05-20T05:49:14;16.10;58.60
68719;DHT22;55696;52.138;5.444;2023-05-20T05:51:40;16.10;58.50
68719;DHT22;55696;52.138;5.444;2023-05-20T05:54:07;16.20;58.20
68719;DHT22;55696;52.138;5.444;2023-05-20T05:56:34;16.30;58.10
68719;DHT22;55696;52.138;5.444;2023-05-20T05:59:03;16.40;59.00
68719;DHT22;55696;52.138;5.444;2023-05-20T06:01:30;16.40;58.80
68719;DHT22;55696;52.138;5.444;2023-05-20T06:03:58;16.40;57.90
68719;DHT22;55696;52.138;5.444;2023-05-20T06:06:25;17.10;58.00
68719;DHT22;55696;52.138;5.444;2023-05-20T06:08:52;16.70;57.80
68719;DHT22;55696;52.138;5.444;2023-05-20T06:11:19;16.80;57.30
68719;DHT22;55696;52.138;5.444;2023-05-20T06:13:47;16.80;56.90
68719;DHT22;55696;52.138;5.444;2023-05-20T06:16:14;16.90;56.80
68719;DHT22;55696;52.138;5.444;2023-05-20T06:18:42;16.90;56.90
68719;DHT22;55696;52.138;5.444;2023-05-20T06:21:09;17.00;56.90
68719;DHT22;55696;52.138;5.444;2023-05-20T06:23:36;17.40;57.10
68719;DHT22;55696;52.138;5.444;2023-05-20T06:26:05;17.10;56.70
68719;DHT22;55696;52.138;5.444;2023-05-20T06:28:32;17.20;56.30
68719;DHT22;55696;52.138;5.444;2023-05-20T06:30:59;17.30;56.20
68719;DHT22;55696;52.138;5.444;2023-05-20T06:33:29;17.30;55.90
68719;DHT22;55696;52.138;5.444;2023-05-20T06:36:00;17.40;55.60
68719;DHT22;55696;52.138;5.444;2023-05-20T06:38:31;17.50;55.10
68719;DHT22;55696;52.138;5.444;2023-05-20T06:40:57;17.60;55.00
68719;DHT22;55696;52.138;5.444;2023-05-20T06:43:24;17.80;54.70
68719;DHT22;55696;52.138;5.444;2023-05-20T06:45:59;17.80;54.30
68719;DHT22;55696;52.138;5.444;2023-05-20T06:48:34;17.90;53.90
68719;DHT22;55696;52.138;5.444;2023-05-20T06:51:01;18.70;54.30
68719;DHT22;55696;52.138;5.444;2023-05-20T06:53:27;18.00;53.90
68719;DHT22;55696;52.138;5.444;2023-05-20T06:55:54;18.30;53.70
68719;DHT22;55696;52.138;5.444;2023-05-20T06:58:22;18.30;53.50
68719;DHT22;55696;52.138;5.444;2023-05-20T07:00:48;18.30;53.30
68719;DHT22;55696;52.138;5.444;2023-05-20T07:03:15;18.40;52.90
68719;DHT22;55696;52.138;5.444;2023-05-20T07:05:43;18.60;53.00
68719;DHT22;55696;52.138;5.444;2023-05-20T07:08:10;18.70;52.90
68719;DHT22;55696;52.138;5.444;2023-05-20T07:10:37;18.80;52.50
68719;DHT22;55696;52.138;5.444;2023-05-20T07:13:05;18.90;52.20
68719;DHT22;55696;52.138;5.444;2023-05-20T07:15:31;18.90;51.70
68719;DHT22;55696;52.138;5.444;2023-05-20T07:17:59;19.00;51.50
68719;DHT22;55696;52.138;5.444;2023-05-20T07:20:26;18.90;51.40
68719;DHT22;55696;52.138;5.444;2023-05-20T07:22:54;19.20;51.60
68719;DHT22;55696;52.138;5.444;2023-05-20T07:25:28;19.20;51.30
68719;DHT22;55696;52.138;5.444;2023-05-20T07:27:55;19.40;50.90
68719;DHT22;55696;52.138;5.444;2023-05-20T07:30:22;19.50;50.80
68719;DHT22;55696;52.138;5.444;2023-05-20T07:33:07;19.50;50.60
68719;DHT22;55696;52.138;5.444;2023-05-20T07:35:34;19.50;50.30
68719;DHT22;55696;52.138;5.444;2023-05-20T07:38:01;19.60;49.90
68719;DHT22;55696;52.138;5.444;2023-05-20T07:40:28;19.80;49.70
68719;DHT22;55696;52.138;5.444;2023-05-20T07:42:55;19.90;49.40
68719;DHT22;55696;52.138;5.444;2023-05-20T07:45:22;19.90;49.20
68719;DHT22;55696;52.138;5.444;2023-05-20T07:47:49;20.30;48.90
68719;DHT22;55696;52.138;5.444;2023-05-20T07:50:16;20.00;48.40
68719;DHT22;55696;52.138;5.444;2023-05-20T07:52:43;20.20;48.10
68719;DHT22;55696;52.138;5.444;2023-05-20T07:55:24;20.20;47.80
68719;DHT22;55696;52.138;5.444;2023-05-20T07:57:51;20.10;47.30
68719;DHT22;55696;52.138;5.444;2023-05-20T08:00:19;20.20;46.60
68719;DHT22;55696;52.138;5.444;2023-05-20T08:02:46;20.30;46.30
68719;DHT22;55696;52.138;5.444;2023-05-20T08:05:19;20.20;46.20
68719;DHT22;55696;52.138;5.444;2023-05-20T08:07:46;20.30;46.00
68719;DHT22;55696;52.138;5.444;2023-05-20T08:10:14;20.40;45.40
68719;DHT22;55696;52.138;5.444;2023-05-20T08:12:42;20.40;45.10
68719;DHT22;55696;52.138;5.444;2023-05-20T08:15:09;20.40;45.20
68719;DHT22;55696;52.138;5.444;2023-05-20T08:17:38;20.60;45.10
68719;DHT22;55696;52.138;5.444;2023-05-20T08:20:06;20.60;44.80
68719;DHT22;55696;52.138;5.444;2023-05-20T08:22:35;20.80;44.60
68719;DHT22;55696;52.138;5.444;2023-05-20T08:25:06;20.70;44.00
68719;DHT22;55696;52.138;5.444;2023-05-20T08:27:34;20.80;43.90
68719;DHT22;55696;52.138;5.444;2023-05-20T08:30:04;20.70;43.70
68719;DHT22;55696;52.138;5.444;2023-05-20T08:32:32;20.90;43.60
68719;DHT22;55696;52.138;5.444;2023-05-20T08:34:59;21.00;43.30
68719;DHT22;55696;52.138;5.444;2023-05-20T08:37:28;21.10;43.00
68719;DHT22;55696;52.138;5.444;2023-05-20T08:39:55;21.60;43.30
68719;DHT22;55696;52.138;5.444;2023-05-20T08:42:23;21.10;42.60
68719;DHT22;55696;52.138;5.444;2023-05-20T08:44:53;21.10;42.40
68719;DHT22;55696;52.138;5.444;2023-05-20T08:47:21;21.00;41.50
68719;DHT22;55696;52.138;5.444;2023-05-20T08:49:48;20.90;41.50
68719;DHT22;55696;52.138;5.444;2023-05-20T08:52:17;20.90;41.40
68719;DHT22;55696;52.138;5.444;2023-05-20T08:54:48;20.90;41.70
68719;DHT22;55696;52.138;5.444;2023-05-20T08:57:15;20.70;41.70
68719;DHT22;55696;52.138;5.444;2023-05-20T08:59:44;20.90;41.60
68719;DHT22;55696;52.138;5.444;2023-05-20T09:02:11;21.00;41.80
68719;DHT22;55696;52.138;5.444;2023-05-20T09:04:38;21.10;41.40
68719;DHT22;55696;52.138;5.444;2023-05-20T09:07:05;21.20;41.10
68719;DHT22;55696;52.138;5.444;2023-05-20T09:09:33;21.20;40.80
68719;DHT22;55696;52.138;5.444;2023-05-20T09:12:01;21.30;40.40
68719;DHT22;55696;52.138;5.444;2023-05-20T09:14:32;21.30;40.40
68719;DHT22;55696;52.138;5.444;2023-05-20T09:16:58;21.30;40.80
68719;DHT22;55696;52.138;5.444;2023-05-20T09:19:26;21.20;40.40
68719;DHT22;55696;52.138;5.444;2023-05-20T09:21:53;21.20;40.50
68719;DHT22;55696;52.138;5.444;2023-05-20T09:24:24;21.20;40.20
68719;DHT22;55696;52.138;5.444;2023-05-20T09:26:52;21.10;40.00
68719;DHT22;55696;52.138;5.444;2023-05-20T09:29:19;21.40;40.20
68719;DHT22;55696;52.138;5.444;2023-05-20T09:31:48;21.20;40.20
68719;DHT22;55696;52.138;5.444;2023-05-20T09:34:15;21.50;40.20
68719;DHT22;55696;52.138;5.444;2023-05-20T09:36:43;21.60;39.70
68719;DHT22;55696;52.138;5.444;2023-05-20T09:39:17;21.60;39.40
68719;DHT22;55696;52.138;5.444;2023-05-20T09:41:51;21.60;39.40
68719;DHT22;55696;52.138;5.444;2023-05-20T09:44:20;21.50;39.40
68719;DHT22;55696;52.138;5.444;2023-05-20T09:46:49;21.70;38.90
68719;DHT22;55696;52.138;5.444;2023-05-20T09:49:16;22.30;39.10
68719;DHT22;55696;52.138;5.444;2023-05-20T09:51:44;21.80;38.50
68719;DHT22;55696;52.138;5.444;2023-05-20T09:54:12;21.90;38.70
68719;DHT22;55696;52.138;5.444;2023-05-20T09:56:40;21.90;39.50
68719;DHT22;55696;52.138;5.444;2023-05-20T09:59:08;22.10;38.70
68719;DHT22;55696;52.138;5.444;2023-05-20T10:01:36;22.20;38.50
68719;DHT22;55696;52.138;5.444;2023-05-20T10:04:05;22.40;38.20
68719;DHT22;55696;52.138;5.444;2023-05-20T10:06:49;22.50;38.30
68719;DHT22;55696;52.138;5.444;2023-05-20T10:09:42;22.50;38.40
68719;DHT22;55696;52.138;5.444;2023-05-20T10:20:11;22.40;37.80
68719;DHT22;55696;52.138;5.444;2023-05-20T10:22:38;22.50;37.70
68719;DHT22;55696;52.138;5.444;2023-05-20T10:25:26;22.60;37.40
68719;DHT22;55696;52.138;5.444;2023-05-20T10:28:06;22.70;37.40
68719;DHT22;55696;52.138;5.444;2023-05-20T10:30:33;22.60;37.00
68719;DHT22;55696;52.138;5.444;2023-05-20T10:33:03;22.40;37.50
68719;DHT22;55696;52.138;5.444;2023-05-20T10:35:31;22.50;37.90
68719;DHT22;55696;52.138;5.444;2023-05-20T10:38:10;22.30;38.00
68719;DHT22;55696;52.138;5.444;2023-05-20T10:40:37;22.30;38.50
68719;DHT22;55696;52.138;5.444;2023-05-20T10:43:09;22.40;38.50
68719;DHT22;55696;52.138;5.444;2023-05-20T10:45:50;22.70;38.60
68719;DHT22;55696;52.138;5.444;2023-05-20T10:48:28;22.90;38.50
68719;DHT22;55696;52.138;5.444;2023-05-20T10:50:57;23.10;37.70
68719;DHT22;55696;52.138;5.444;2023-05-20T10:53:25;23.30;37.20
68719;DHT22;55696;52.138;5.444;2023-05-20T10:56:00;23.90;37.00
68719;DHT22;55696;52.138;5.444;2023-05-20T10:58:36;23.50;36.20
68719;DHT22;55696;52.138;5.444;2023-05-20T11:01:03;23.60;36.20
68719;DHT22;55696;52.138;5.444;2023-05-20T11:03:30;23.70;37.40
68719;DHT22;55696;52.138;5.444;2023-05-20T11:05:58;24.00;36.60
68719;DHT22;55696;52.138;5.444;2023-05-20T11:08:28;24.20;36.40
68719;DHT22;55696;52.138;5.444;2023-05-20T11:10:57;23.90;36.00
68719;DHT22;55696;52.138;5.444;2023-05-20T11:13:25;23.80;35.90
68719;DHT22;55696;52.138;5.444;2023-05-20T11:15:52;23.70;36.30
68719;DHT22;55696;52.138;5.444;2023-05-20T11:18:19;23.80;36.70
68719;DHT22;55696;52.138;5.444;2023-05-20T11:20:46;24.00;36.50
68719;DHT22;55696;52.138;5.444;2023-05-20T11:23:14;24.30;36.30
68719;DHT22;55696;52.138;5.444;2023-05-20T11:25:41;24.50;36.20
68719;DHT22;55696;52.138;5.444;2023-05-20T11:28:14;24.80;35.80
68719;DHT22;55696;52.138;5.444;2023-05-20T11:30:42;25.00;35.50
68719;DHT22;55696;52.138;5.444;2023-05-20T11:33:11;24.80;34.90
68719;DHT22;55696;52.138;5.444;2023-05-20T11:35:52;24.90;34.70
68719;DHT22;55696;52.138;5.444;2023-05-20T11:38:20;24.60;34.80
68719;DHT22;55696;52.138;5.444;2023-05-20T11:40:54;24.60;35.40
68719;DHT22;55696;52.138;5.444;2023-05-20T11:43:22;24.80;35.40
68719;DHT22;55696;52.138;5.444;2023-05-20T11:45:54;24.80;35.10
68719;DHT22;55696;52.138;5.444;2023-05-20T11:48:22;24.70;35.10
68719;DHT22;55696;52.138;5.444;2023-05-20T11:50:49;25.00;35.40
68719;DHT22;55696;52.138;5.444;2023-05-20T11:53:19;25.10;34.80
68719;DHT22;55696;52.138;5.444;2023-05-20T11:55:52;25.10;34.80
68719;DHT22;55696;52.138;5.444;2023-05-20T11:58:22;25.10;35.00
68719;DHT22;55696;52.138;5.444;2023-05-20T12:00:49;25.10;34.60
68719;DHT22;55696;52.138;5.444;2023-05-20T12:03:24;25.20;34.20
68719;DHT22;55696;52.138;5.444;2023-05-20T12:05:52;25.20;33.90
68719;DHT22;55696;52.138;5.444;2023-05-20T12:08:19;25.30;33.70
68719;DHT22;55696;52.138;5.444;2023-05-20T12:10:45;25.70;34.20
68719;DHT22;55696;52.138;5.444;2023-05-20T12:13:12;26.20;34.10
68719;DHT22;55696;52.138;5.444;2023-05-20T12:15:39;26.70;33.70
68719;DHT22;55696;52.138;5.444;2023-05-20T12:18:06;27.00;33.70
68719;DHT22;55696;52.138;5.444;2023-05-20T12:20:33;27.00;33.10
68719;DHT22;55696;52.138;5.444;2023-05-20T12:23:02;26.70;32.20
68719;DHT22;55696;52.138;5.444;2023-05-20T12:25:29;26.30;32.30
68719;DHT22;55696;52.138;5.444;2023-05-20T12:27:56;25.70;32.50
68719;DHT22;55696;52.138;5.444;2023-05-20T12:30:23;25.70;33.60
68719;DHT22;55696;52.138;5.444;2023-05-20T12:32:50;24.80;34.00
68719;DHT22;55696;52.138;5.444;2023-05-20T12:35:25;24.80;34.60
68719;DHT22;55696;52.138;5.444;2023-05-20T12:38:01;25.10;34.60
68719;DHT22;55696;52.138;5.444;2023-05-20T12:40:28;25.50;34.30
68719;DHT22;55696;52.138;5.444;2023-05-20T12:42:55;25.50;33.40
68719;DHT22;55696;52.138;5.444;2023-05-20T12:45:21;25.70;34.00
68719;DHT22;55696;52.138;5.444;2023-05-20T12:47:48;25.00;33.80
68719;DHT22;55696;52.138;5.444;2023-05-20T12:50:15;25.30;34.40
68719;DHT22;55696;52.138;5.444;2023-05-20T12:52:42;25.10;34.30
68719;DHT22;55696;52.138;5.444;2023-05-20T12:55:09;25.60;34.70
68719;DHT22;55696;52.138;5.444;2023-05-20T12:57:40;25.30;34.30
68719;DHT22;55696;52.138;5.444;2023-05-20T13:00:08;25.40;33.80
68719;DHT22;55696;52.138;5.444;2023-05-20T13:02:36;25.50;34.60
68719;DHT22;55696;52.138;5.444;2023-05-20T13:05:05;25.90;34.60
68719;DHT22;55696;52.138;5.444;2023-05-20T13:07:32;25.50;34.30
68719;DHT22;55696;52.138;5.444;2023-05-20T13:09:59;25.50;34.30
68719;DHT22;55696;52.138;5.444;2023-05-20T13:12:26;25.60;33.80
68719;DHT22;55696;52.138;5.444;2023-05-20T13:14:53;25.90;34.00
68719;DHT22;55696;52.138;5.444;2023-05-20T13:17:20;25.50;34.20
68719;DHT22;55696;52.138;5.444;2023-05-20T13:19:47;25.40;33.60
68719;DHT22;55696;52.138;5.444;2023-05-20T13:22:14;25.70;34.10
68719;DHT22;55696;52.138;5.444;2023-05-20T13:24:41;26.00;34.00
68719;DHT22;55696;52.138;5.444;2023-05-20T13:27:08;26.00;33.70
68719;DHT22;55696;52.138;5.444;2023-05-20T13:29:34;26.10;33.60
68719;DHT22;55696;52.138;5.444;2023-05-20T13:32:02;25.90;33.10
68719;DHT22;55696;52.138;5.444;2023-05-20T13:34:29;25.90;33.70
68719;DHT22;55696;52.138;5.444;2023-05-20T13:36:57;26.00;33.50
68719;DHT22;55696;52.138;5.444;2023-05-20T13:39:24;26.00;33.30
68719;DHT22;55696;52.138;5.444;2023-05-20T13:41:51;26.20;34.10
68719;DHT22;55696;52.138;5.444;2023-05-20T13:44:20;26.50;34.20
68719;DHT22;55696;52.138;5.444;2023-05-20T13:46:47;26.40;33.20
68719;DHT22;55696;52.138;5.444;2023-05-20T13:49:14;26.80;33.50
68719;DHT22;55696;52.138;5.444;2023-05-20T13:51:41;27.40;33.40
68719;DHT22;55696;52.138;5.444;2023-05-20T13:54:07;27.50;32.70
68719;DHT22;55696;52.138;5.444;2023-05-20T13:56:34;27.70;32.10
68719;DHT22;55696;52.138;5.444;2023-05-20T13:59:01;27.50;31.70
68719;DHT22;55696;52.138;5.444;2023-05-20T14:01:29;27.40;32.10
68719;DHT22;55696;52.138;5.444;2023-05-20T14:03:58;27.00;32.40
68719;DHT22;55696;52.138;5.444;2023-05-20T14:06:25;26.60;32.60
68719;DHT22;55696;52.138;5.444;2023-05-20T14:08:53;26.40;33.10
68719;DHT22;55696;52.138;5.444;2023-05-20T14:11:20;26.20;33.30
68719;DHT22;55696;52.138;5.444;2023-05-20T14:13:47;26.40;33.50
68719;DHT22;55696;52.138;5.444;2023-05-20T14:16:14;26.60;33.90
68719;DHT22;55696;52.138;5.444;2023-05-20T14:18:41;27.20;34.00
68719;DHT22;55696;52.138;5.444;2023-05-20T14:21:08;27.50;33.50
68719;DHT22;55696;52.138;5.444;2023-05-20T14:23:35;27.50;32.50
68719;DHT22;55696;52.138;5.444;2023-05-20T14:26:02;27.20;32.30
68719;DHT22;55696;52.138;5.444;2023-05-20T14:28:28;26.90;32.50
68719;DHT22;55696;52.138;5.444;2023-05-20T14:30:55;26.80;33.10
68719;DHT22;55696;52.138;5.444;2023-05-20T14:33:22;27.00;33.40
68719;DHT22;55696;52.138;5.444;2023-05-20T14:35:49;26.80;31.90
68719;DHT22;55696;52.138;5.444;2023-05-20T14:38:15;26.70;32.30
68719;DHT22;55696;52.138;5.444;2023-05-20T14:40:43;26.60;32.40
68719;DHT22;55696;52.138;5.444;2023-05-20T14:43:10;26.80;33.00
68719;DHT22;55696;52.138;5.444;2023-05-20T14:45:37;27.00;33.00
68719;DHT22;55696;52.138;5.444;2023-05-20T14:48:04;27.20;32.70
68719;DHT22;55696;52.138;5.444;2023-05-20T14:50:31;27.40;32.20
68719;DHT22;55696;52.138;5.444;2023-05-20T14:52:58;27.20;31.70
68719;DHT22;55696;52.138;5.444;2023-05-20T14:55:25;26.90;32.30
68719;DHT22;55696;52.138;5.444;2023-05-20T14:57:51;26.70;32.60
68719;DHT22;55696;52.138;5.444;2023-05-20T15:00:18;26.90;33.20
68719;DHT22;55696;52.138;5.444;2023-05-20T15:02:45;27.30;33.80
68719;DHT22;55696;52.138;5.444;2023-05-20T15:05:12;27.30;32.50
68719;DHT22;55696;52.138;5.444;2023-05-20T15:07:39;27.30;32.60
68719;DHT22;55696;52.138;5.444;2023-05-20T15:10:06;27.00;33.50
68719;DHT22;55696;52.138;5.444;2023-05-20T15:12:34;26.70;32.30
68719;DHT22;55696;52.138;5.444;2023-05-20T15:15:01;26.60;33.30
68719;DHT22;55696;52.138;5.444;2023-05-20T15:17:28;26.00;33.00
68719;DHT22;55696;52.138;5.444;2023-05-20T15:19:55;25.50;33.20
68719;DHT22;55696;52.138;5.444;2023-05-20T15:22:21;25.50;33.50
68719;DHT22;55696;52.138;5.444;2023-05-20T15:24:48;25.50;33.90
68719;DHT22;55696;52.138;5.444;2023-05-20T15:27:15;25.00;33.80
68719;DHT22;55696;52.138;5.444;2023-05-20T15:29:42;25.10;33.90
68719;DHT22;55696;52.138;5.444;2023-05-20T15:32:09;25.40;34.30
68719;DHT22;55696;52.138;5.444;2023-05-20T15:34:36;24.80;34.50
68719;DHT22;55696;52.138;5.444;2023-05-20T15:37:02;24.90;34.50
68719;DHT22;55696;52.138;5.444;2023-05-20T15:39:29;24.80;34.30
68719;DHT22;55696;52.138;5.444;2023-05-20T15:41:56;25.10;35.00
68719;DHT22;55696;52.138;5.444;2023-05-20T15:44:25;24.90;35.20